Terminal Aerodrome Forecast
Issued by NWS Sterling, VA

Home | Current Version | Previous Version | Text Only | Print | Product List | Glossary On
Versions: 1 2 3 4 5 6 7 8 9 10 11 12 13 14 15 16 17 18 19 20 21 22 23 24 25 26 27
605
FTUS41 KLWX 232327
TAFIAD
TAF
KIAD 232327Z 2400/2506 02015G24KT 1SM -RADZ OVC003
     FM240300 36013G20KT 2SM -RA OVC003
     FM240600 34012KT 2SM -RASN OVC003
     FM241200 32013G20KT P6SM OVC015
     FM241800 31014G23KT P6SM BKN025
     FM242100 31014G23KT P6SM BKN050
     FM250200 31008KT P6SM FEW080
     FM250500 30004KT P6SM FEW250=

USA.gov is the U.S. government's official web portal to all federal, state and local government web resources and services.